Time;durP1;ratioP1;P1;durP2;ratioP2;P2;SDS_P1;SDS_P2;PMS_P1;PMS_P2;Temp;Humidity;BMP_temperature;BMP_pressure;BME280_temperature;BME280_humidity;BME280_pressure;Samples;Min_cycle;Max_cycle;Signal;HPM_P1;HPM_P2
2021/05/30 00:01:34;;;;;;;;;;;;;;;;;;;;;
2021/05/30 00:04:07;;;;;;;2.95;1.90;;;;;;;7.62;73.96;99787.50;4955007;29;20533;-83
2021/05/30 00:09:35;;;;;;;3.35;2.28;;;;;;;7.64;74.32;99802.75;4980250;28;20132;-84
2021/05/30 00:12:05;;;;;;;4.90;1.90;;;;;;;7.57;74.49;99810.59;4993952;28;20142;-85
2021/05/30 00:14:37;;;;;;;3.45;2.15;;;;;;;7.47;74.64;99790.84;4978784;28;20522;-83
2021/05/30 00:17:12;;;;;;;4.55;1.85;;;;;;;7.71;74.65;99801.16;4955096;28;20059;-83
2021/05/30 00:19:39;;;;;;;6.68;2.20;;;;;;;7.60;74.28;99794.06;4976423;28;20054;-83
2021/05/30 00:22:15;;;;;;;4.03;1.90;;;;;;;7.70;74.11;99786.75;4978393;28;20038;-84
2021/05/30 00:24:42;;;;;;;3.65;1.98;;;;;;;7.53;74.66;99783.00;4992832;28;20410;-83
2021/05/30 00:27:12;;;;;;;2.28;1.98;;;;;;;7.57;74.36;99792.53;4974084;28;20063;-83
2021/05/30 00:29:38;;;;;;;7.30;2.10;;;;;;;7.70;73.81;99821.94;4979435;28;20046;-83
2021/05/30 00:32:16;;;;;;;2.53;1.63;;;;;;;7.46;74.12;99808.94;4974416;28;20047;-83
2021/05/30 00:34:43;;;;;;;3.78;1.98;;;;;;;7.40;74.15;99796.84;4977320;28;20058;-83
2021/05/30 00:37:12;;;;;;;2.60;2.05;;;;;;;7.24;74.59;99797.50;4973982;28;20047;-84
2021/05/30 00:39:38;;;;;;;3.10;2.15;;;;;;;7.19;75.10;99791.66;4988028;28;20445;-84
2021/05/30 00:42:05;;;;;;;4.72;2.45;;;;;;;7.25;75.21;99817.28;4980877;28;20046;-84
2021/05/30 00:44:32;;;;;;;2.90;2.25;;;;;;;7.22;74.72;99802.19;4979421;28;20057;-83
2021/05/30 00:47:00;;;;;;;8.55;2.78;;;;;;;6.99;75.80;99801.72;4980922;28;20047;-83
2021/05/30 00:49:30;;;;;;;4.18;2.10;;;;;;;7.28;75.06;99808.03;4973983;28;20047;-82
2021/05/30 00:51:56;;;;;;;;;;;;;;;7.20;75.54;99811.47;4986470;28;20050;-83
2021/05/30 00:54:24;;;;;;;3.65;2.10;;;;;;;7.15;75.80;99819.16;4976173;28;20453;-84
2021/05/30 00:56:51;;;;;;;3.00;2.20;;;;;;;7.02;76.40;99811.38;4980252;28;20054;-84
2021/05/30 00:59:17;;;;;;;5.22;2.42;;;;;;;6.99;76.29;99795.47;4974018;28;20054;-84
2021/05/30 01:01:44;;;;;;;4.45;2.58;;;;;;;6.90;76.86;99805.28;4968409;28;20517;-84
2021/05/30 01:04:11;;;;;;;6.60;2.58;;;;;;;6.98;76.77;99800.00;4977604;28;20487;-84
2021/05/30 01:06:39;;;;;;;5.57;2.85;;;;;;;6.98;77.14;99815.38;4978618;28;20058;-84
2021/05/30 01:09:06;;;;;;;6.68;2.42;;;;;;;6.92;76.70;99800.56;4997651;28;20066;-84
2021/05/30 01:11:36;;;;;;;4.55;2.45;;;;;;;7.02;77.43;99812.22;4988431;28;20414;-81
2021/05/30 01:14:04;;;;;;;2.53;2.08;;;;;;;7.13;77.10;99821.16;4977358;28;20054;-83
2021/05/30 01:16:31;;;;;;;3.47;2.63;;;;;;;7.25;75.88;99812.72;4971898;28;20055;-83
2021/05/30 01:18:59;;;;;;;3.10;2.47;;;;;;;7.30;75.82;99817.72;4967488;28;20061;-82
2021/05/30 01:21:27;;;;;;;3.95;2.35;;;;;;;7.04;76.74;99799.41;4974424;28;20108;-82
2021/05/30 01:23:57;;;;;;;3.80;2.80;;;;;;;7.02;76.73;99798.72;4984081;28;20077;-83
2021/05/30 01:26:24;;;;;;;4.38;2.40;;;;;;;7.17;76.38;99811.78;4994654;28;20062;-83
2021/05/30 01:28:57;;;;;;;3.38;2.60;;;;;;;6.90;76.06;99797.19;4978612;28;20054;-84
2021/05/30 01:31:24;;;;;;;3.22;2.72;;;;;;;6.87;77.04;99817.25;4990213;28;20050;-83
2021/05/30 01:33:50;;;;;;;6.15;3.25;;;;;;;6.64;77.04;99800.50;4977525;28;20419;-82
2021/05/30 01:36:17;;;;;;;3.40;2.58;;;;;;;6.76;77.32;99821.94;4983418;28;20062;-82
2021/05/30 01:38:43;;;;;;;4.30;2.90;;;;;;;6.43;77.17;99807.88;4976689;28;20046;-83
2021/05/30 01:41:10;;;;;;;3.78;2.85;;;;;;;6.43;77.71;99816.00;4977390;28;20050;-83
2021/05/30 01:43:37;;;;;;;4.63;3.00;;;;;;;6.42;77.73;99814.31;4977248;28;20062;-83
2021/05/30 01:46:03;;;;;;;3.92;2.85;;;;;;;6.47;77.91;99820.97;4995575;28;20081;-83
2021/05/30 01:48:32;;;;;;;2.95;2.47;;;;;;;6.43;78.02;99827.66;4977285;28;20059;-83
2021/05/30 01:50:58;;;;;;;2.83;2.28;;;;;;;6.34;78.49;99821.25;4994903;28;20050;-83
2021/05/30 01:53:35;;;;;;;3.80;2.65;;;;;;;6.42;77.92;99817.00;4993480;28;20073;-83
2021/05/30 01:59:37;;;;;;;3.70;2.30;;;;;;;6.28;78.42;99819.13;4973513;28;20058;-83
2021/05/30 02:02:50;;;;;;;3.60;2.88;;;;;;;6.44;78.07;99837.47;4952801;28;20058;-84
2021/05/30 02:05:43;;;;;;;8.10;2.67;;;;;;;6.42;78.00;99844.00;4968958;28;20050;-83
2021/05/30 02:08:12;;;;;;;5.00;3.10;;;;;;;6.54;77.85;99840.16;4981146;28;20064;-83
2021/05/30 02:10:42;;;;;;;4.13;2.92;;;;;;;6.38;78.02;99811.88;4972631;28;20236;-84
2021/05/30 02:13:12;;;;;;;5.88;2.83;;;;;;;6.36;78.78;99827.38;4975705;28;20159;-84
2021/05/30 02:15:39;;;;;;;6.78;3.13;;;;;;;6.44;78.40;99828.50;4977020;28;20058;-83
2021/05/30 02:18:32;;;;;;;3.58;2.55;;;;;;;6.55;78.34;99833.78;4987625;28;20058;-83
2021/05/30 02:21:02;;;;;;;3.63;2.90;;;;;;;6.33;78.19;99810.59;4965410;28;20051;-83
2021/05/30 02:23:28;;;;;;;3.83;3.05;;;;;;;6.49;77.37;99819.00;4985359;28;20058;-83
2021/05/30 02:25:55;;;;;;;4.00;2.65;;;;;;;6.29;77.90;99826.25;4976805;28;20055;-83
2021/05/30 02:28:22;;;;;;;3.83;2.55;;;;;;;6.30;77.82;99838.72;4987323;28;20100;-83
2021/05/30 02:30:48;;;;;;;3.30;2.47;;;;;;;6.30;78.08;99841.44;4995992;28;20050;-83
2021/05/30 02:33:15;;;;;;;5.13;2.83;;;;;;;6.41;77.82;99840.44;4995893;28;20061;-83
2021/05/30 02:35:41;;;;;;;3.83;2.85;;;;;;;6.26;77.89;99841.84;4984418;28;20050;-83
2021/05/30 02:38:07;;;;;;;3.67;2.92;;;;;;;6.13;78.13;99831.34;4987286;28;20066;-80
2021/05/30 02:40:34;;;;;;;7.25;3.28;;;;;;;6.22;78.22;99854.81;4984728;28;20055;-82
2021/05/30 02:43:01;;;;;;;7.18;3.03;;;;;;;6.10;78.49;99829.75;4976785;28;20111;-83
2021/05/30 02:45:28;;;;;;;5.70;3.17;;;;;;;6.08;79.29;99855.19;4985148;28;20061;-83
2021/05/30 02:47:55;;;;;;;8.60;3.65;;;;;;;5.96;79.20;99836.41;4995940;28;20085;-83
2021/05/30 02:50:21;;;;;;;4.10;3.47;;;;;;;6.09;79.17;99856.91;4996167;28;20407;-83
2021/05/30 02:52:50;;;;;;;4.15;3.08;;;;;;;5.79;80.01;99831.66;4995941;28;20043;-83
2021/05/30 02:55:16;;;;;;;5.75;3.10;;;;;;;5.98;79.57;99839.81;4992804;28;20057;-83
2021/05/30 02:57:43;;;;;;;3.85;2.85;;;;;;;5.99;79.01;99836.16;4995335;28;20116;-83
2021/05/30 03:00:11;;;;;;;4.45;3.38;;;;;;;6.13;79.04;99853.78;4995594;28;20056;-83
2021/05/30 03:02:38;;;;;;;6.20;3.40;;;;;;;5.95;79.26;99834.69;4994464;28;20050;-83
2021/05/30 03:05:06;;;;;;;3.97;2.95;;;;;;;6.06;79.25;99857.19;4977248;28;20066;-83
2021/05/30 03:07:32;;;;;;;3.53;3.10;;;;;;;5.98;79.42;99833.59;4975364;28;20058;-83
2021/05/30 03:10:11;;;;;;;5.53;3.65;;;;;;;6.03;79.33;99853.75;4975793;28;20487;-83
2021/05/30 03:12:37;;;;;;;4.78;3.45;;;;;;;5.82;79.28;99839.47;4974276;28;20053;-83
2021/05/30 03:15:05;;;;;;;4.57;3.28;;;;;;;5.91;79.41;99838.63;4975394;28;20097;-83
2021/05/30 03:17:32;;;;;;;4.00;3.40;;;;;;;5.96;79.94;99854.41;4975859;28;20058;-83
2021/05/30 03:19:59;;;;;;;4.30;3.35;;;;;;;5.91;80.05;99857.53;4977463;28;20653;-83
2021/05/30 03:22:26;;;;;;;5.57;3.40;;;;;;;5.94;80.26;99864.50;4975706;28;20577;-83
2021/05/30 03:24:52;;;;;;;6.72;4.38;;;;;;;5.94;80.19;99845.63;4975545;28;20062;-83
2021/05/30 03:27:19;;;;;;;5.53;3.25;;;;;;;5.81;80.50;99853.94;4975323;28;20050;-84
2021/05/30 03:29:45;;;;;;;4.80;3.50;;;;;;;5.78;80.33;99832.63;4990926;28;20058;-83
2021/05/30 03:32:11;;;;;;;5.32;3.78;;;;;;;5.77;81.31;99842.59;4967153;28;20054;-82
2021/05/30 03:34:38;;;;;;;4.80;3.38;;;;;;;5.96;80.32;99868.78;4975101;28;20055;-81
2021/05/30 03:37:09;;;;;;;5.85;4.10;;;;;;;6.02;81.21;99862.00;4967875;28;20047;-82
2021/05/30 03:39:39;;;;;;;4.80;3.22;;;;;;;5.91;80.84;99854.84;4975650;28;20055;-83
2021/05/30 03:42:09;;;;;;;5.57;3.30;;;;;;;5.95;80.28;99841.94;4985652;28;20050;-83
2021/05/30 03:44:36;;;;;;;5.87;3.33;;;;;;;5.84;80.82;99848.28;4988536;28;20051;-83
2021/05/30 03:47:02;;;;;;;6.45;3.70;;;;;;;5.89;80.49;99856.81;4982840;28;20430;-83
2021/05/30 03:49:28;;;;;;;5.18;4.05;;;;;;;5.90;80.80;99846.88;4975234;28;20081;-83
2021/05/30 03:51:55;;;;;;;3.55;3.20;;;;;;;6.00;80.70;99847.78;4975188;28;20054;-83
2021/05/30 03:54:22;;;;;;;4.88;3.13;;;;;;;5.94;80.35;99851.84;4974949;28;20058;-83
2021/05/30 03:56:48;;;;;;;5.57;3.53;;;;;;;6.00;79.76;99854.03;4971721;28;20506;-83
2021/05/30 03:59:15;;;;;;;5.00;3.33;;;;;;;5.98;79.80;99866.81;4968858;28;20046;-83
2021/05/30 04:01:41;;;;;;;5.47;3.80;;;;;;;6.13;79.44;99879.94;4974905;28;20050;-83
2021/05/30 04:04:07;;;;;;;5.03;3.80;;;;;;;5.94;80.09;99851.84;4982708;28;20046;-83
2021/05/30 04:06:34;;;;;;;4.30;3.03;;;;;;;5.88;80.33;99860.50;4994251;28;20057;-83
2021/05/30 04:09:00;;;;;;;4.40;3.17;;;;;;;6.10;80.86;99882.91;4987147;28;20062;-83
2021/05/30 04:11:28;;;;;;;8.80;3.58;;;;;;;5.95;81.19;99867.06;4982921;28;20461;-83
2021/05/30 04:13:54;;;;;;;4.80;3.85;;;;;;;5.99;81.21;99859.56;4974765;28;20047;-83
2021/05/30 04:16:20;;;;;;;5.68;3.50;;;;;;;6.08;81.33;99887.56;4983475;28;20054;-82
2021/05/30 04:18:48;;;;;;;6.15;3.72;;;;;;;6.05;81.36;99868.97;4975722;28;20371;-83
2021/05/30 04:21:14;;;;;;;10.65;3.95;;;;;;;6.10;81.89;99878.34;4985404;28;20047;-83
2021/05/30 04:23:41;;;;;;;4.93;3.28;;;;;;;5.98;82.30;99872.22;4986533;28;20050;-83
2021/05/30 04:26:07;;;;;;;5.00;3.50;;;;;;;6.20;81.34;99865.75;4993900;28;20462;-83
2021/05/30 04:28:34;;;;;;;6.20;3.67;;;;;;;6.43;80.58;99878.09;4994109;28;20101;-83
2021/05/30 04:31:01;;;;;;;5.32;3.80;;;;;;;6.42;80.73;99879.97;4994299;28;20054;-83
2021/05/30 04:33:27;;;;;;;6.13;4.18;;;;;;;6.34;80.59;99863.63;4977785;28;20057;-83
2021/05/30 04:39:18;;;;;;;5.30;3.72;;;;;;;6.51;81.00;99878.28;4976009;28;20134;-83
2021/05/30 04:41:45;;;;;;;4.57;3.17;;;;;;;6.42;81.20;99852.97;4972081;28;20054;-83
2021/05/30 04:44:12;;;;;;;6.00;3.80;;;;;;;6.51;80.68;99857.50;4963289;28;20286;-83
2021/05/30 04:46:38;;;;;;;4.85;3.40;;;;;;;6.71;81.49;99876.41;4974857;28;20057;-83
2021/05/30 04:49:05;;;;;;;4.45;3.15;;;;;;;6.60;82.19;99863.91;4974315;28;20051;-83
2021/05/30 04:51:31;;;;;;;8.40;3.75;;;;;;;6.74;81.39;99862.63;4974285;28;20051;-83
2021/05/30 04:53:59;;;;;;;6.57;4.25;;;;;;;6.92;81.43;99873.56;4966756;28;20054;-83
2021/05/30 04:56:25;;;;;;;6.05;3.92;;;;;;;7.06;81.12;99877.66;4977938;28;20058;-83
2021/05/30 04:58:52;;;;;;;5.28;3.30;;;;;;;7.45;80.54;99869.44;4985566;28;20051;-83
2021/05/30 05:01:20;;;;;;;4.45;3.60;;;;;;;8.13;78.02;99843.94;4987413;28;20059;-83
2021/05/30 05:03:46;;;;;;;4.88;3.65;;;;;;;9.16;74.18;99841.63;4974591;28;20047;-83
2021/05/30 05:06:13;;;;;;;10.73;3.70;;;;;;;9.99;71.35;99856.47;4974386;28;20058;-83
2021/05/30 05:08:39;;;;;;;5.53;3.60;;;;;;;10.78;69.00;99872.50;4974090;28;20049;-83
2021/05/30 05:11:05;;;;;;;5.20;3.05;;;;;;;11.18;66.12;99840.00;4976842;28;20439;-83
2021/05/30 05:13:32;;;;;;;5.18;3.10;;;;;;;11.67;64.44;99840.72;4978202;28;20047;-84
2021/05/30 05:15:58;;;;;;;3.90;2.78;;;;;;;11.92;63.04;99848.78;4975319;28;20055;-83
2021/05/30 05:18:30;;;;;;;7.05;3.00;;;;;;;12.09;62.19;99829.69;4982839;28;20101;-84
2021/05/30 05:20:57;;;;;;;5.72;3.05;;;;;;;12.52;61.95;99855.47;4988933;28;20046;-83
2021/05/30 05:23:25;;;;;;;4.38;3.30;;;;;;;12.65;61.21;99856.78;4993242;28;20046;-84
2021/05/30 05:25:52;;;;;;;7.57;3.40;;;;;;;12.93;59.38;99844.28;4979678;28;20097;-84
2021/05/30 05:28:19;;;;;;;3.75;2.92;;;;;;;13.07;60.31;99850.81;4974105;28;20054;-84
2021/05/30 05:30:45;;;;;;;3.83;2.47;;;;;;;13.37;60.25;99842.69;4974122;28;20514;-84
2021/05/30 05:33:12;;;;;;;4.53;2.72;;;;;;;13.53;59.25;99838.09;4974558;28;20061;-84
2021/05/30 05:35:41;;;;;;;5.13;3.10;;;;;;;13.73;57.36;99852.91;4982845;28;20051;-84
2021/05/30 05:38:07;;;;;;;4.53;2.72;;;;;;;13.90;57.41;99847.25;4975798;28;20047;-84
2021/05/30 05:40:34;;;;;;;5.70;2.92;;;;;;;13.66;57.51;99838.28;4977940;28;20047;-84
2021/05/30 05:43:00;;;;;;;3.88;2.40;;;;;;;14.19;57.36;99843.59;4973695;28;20054;-84
2021/05/30 05:45:27;;;;;;;6.05;3.50;;;;;;;13.89;56.43;99832.69;4973792;28;20046;-84
2021/05/30 05:47:54;;;;;;;3.78;2.90;;;;;;;14.57;56.80;99848.84;4976039;28;20058;-84
2021/05/30 05:50:22;;;;;;;5.82;2.70;;;;;;;14.86;54.52;99844.34;4989000;28;20093;-84
2021/05/30 05:52:53;;;;;;;6.05;3.10;;;;;;;14.80;54.64;99842.41;4989800;28;20050;-84
2021/05/30 05:55:22;;;;;;;4.72;2.90;;;;;;;14.56;55.54;99849.06;4979283;28;20047;-84
2021/05/30 05:57:50;;;;;;;4.40;2.80;;;;;;;15.08;54.51;99834.22;4963836;28;20056;-84
2021/05/30 06:00:19;;;;;;;4.80;2.67;;;;;;;15.16;53.94;99847.78;4996945;28;20050;-84
2021/05/30 06:02:47;;;;;;;6.65;3.00;;;;;;;15.60;53.08;99850.38;4988005;28;20054;-84
2021/05/30 06:05:16;;;;;;;4.00;2.95;;;;;;;15.72;52.65;99843.31;4995934;28;20058;-84
2021/05/30 06:07:43;;;;;;;4.70;2.78;;;;;;;15.57;51.47;99855.22;4977185;28;20062;-84
2021/05/30 06:10:12;;;;;;;4.40;2.88;;;;;;;15.75;50.98;99845.66;4970603;28;20058;-84
2021/05/30 06:12:38;;;;;;;4.20;2.63;;;;;;;15.67;50.60;99835.69;4984770;28;20061;-85
2021/05/30 06:15:06;;;;;;;6.72;3.17;;;;;;;16.24;49.05;99846.53;4979180;28;20057;-85
2021/05/30 06:17:32;;;;;;;5.95;3.10;;;;;;;16.37;48.63;99834.75;4976946;28;20042;-85
2021/05/30 06:19:59;;;;;;;4.03;2.65;;;;;;;16.42;48.27;99838.59;4980402;28;20548;-86
2021/05/30 06:22:27;;;;;;;6.00;3.05;;;;;;;16.82;46.80;99843.31;4977106;28;20050;-85
2021/05/30 06:24:53;;;;;;;3.55;2.80;;;;;;;16.63;47.17;99842.22;4971100;28;20086;-85
2021/05/30 06:27:21;;;;;;;4.97;2.63;;;;;;;16.54;47.20;99851.69;4976535;28;20058;-85
2021/05/30 06:29:47;;;;;;;5.38;2.72;;;;;;;16.36;48.73;99830.31;4968609;28;20495;-86
2021/05/30 06:32:14;;;;;;;6.25;2.83;;;;;;;16.70;46.90;99832.09;4984473;28;20043;-85
2021/05/30 06:34:41;;;;;;;4.47;2.78;;;;;;;16.96;47.04;99833.22;4976740;28;20078;-85
2021/05/30 06:37:07;;;;;;;5.45;2.38;;;;;;;17.07;46.13;99837.22;4976468;28;20054;-85
2021/05/30 06:39:34;;;;;;;3.90;2.78;;;;;;;17.30;45.58;99834.06;4972465;28;20065;-85
2021/05/30 06:42:00;;;;;;;6.70;2.95;;;;;;;16.87;45.81;99839.97;4956334;28;20450;-86
2021/05/30 06:44:28;;;;;;;4.20;2.40;;;;;;;16.67;46.08;99837.16;4973870;28;20062;-85
2021/05/30 06:46:54;;;;;;;3.83;2.70;;;;;;;16.70;47.20;99847.72;4961750;28;20129;-82
2021/05/30 06:49:20;;;;;;;6.25;2.90;;;;;;;16.99;44.96;99844.59;4975046;28;20145;-82
2021/05/30 06:51:47;;;;;;;6.10;2.95;;;;;;;17.28;45.78;99839.78;4969537;28;20101;-82
2021/05/30 06:54:13;;;;;;;5.65;2.42;;;;;;;17.71;43.77;99846.69;4971685;28;20051;-85
2021/05/30 06:56:41;;;;;;;2.60;2.40;;;;;;;17.36;44.24;99829.59;4977696;28;20101;-84
2021/05/30 06:59:08;;;;;;;4.05;2.50;;;;;;;17.55;43.88;99825.97;4975432;28;20058;-85
2021/05/30 07:01:37;;;;;;;4.43;2.70;;;;;;;17.66;42.60;99836.31;4975414;28;20089;-86
2021/05/30 07:04:04;;;;;;;3.70;2.50;;;;;;;17.61;44.15;99846.28;4959523;28;20054;-85
2021/05/30 07:06:30;;;;;;;4.13;2.40;;;;;;;17.32;44.11;99830.03;4976889;28;20113;-85
2021/05/30 07:08:58;;;;;;;3.13;2.70;;;;;;;17.08;44.46;99850.75;4976180;28;20410;-82
2021/05/30 07:11:24;;;;;;;4.55;2.78;;;;;;;17.03;43.87;99858.78;4974100;28;20071;-85
2021/05/30 07:13:50;;;;;;;8.00;3.80;;;;;;;17.30;45.53;99870.63;4973246;28;20054;-84
2021/05/30 07:16:17;;;;;;;3.53;2.55;;;;;;;16.99;44.05;99858.34;4977568;28;20058;-87
2021/05/30 07:18:49;;;;;;;4.75;2.80;;;;;;;17.44;44.99;99851.38;4972836;28;20054;-87
2021/05/30 07:21:25;;;;;;;4.97;2.90;;;;;;;17.51;43.69;99847.56;4976606;28;20483;-89
2021/05/30 07:24:18;;;;;;;3.42;2.55;;;;;;;17.34;43.04;99858.16;4961000;28;20043;-88
2021/05/30 07:26:52;;;;;;;3.35;2.35;;;;;;;17.90;43.79;99858.72;4982147;28;20120;-87
2021/05/30 07:29:30;;;;;;;4.47;2.90;;;;;;;18.10;44.32;99860.56;4992636;28;20141;-86
2021/05/30 07:32:00;;;;;;;3.05;2.60;;;;;;;18.58;42.15;99855.47;4976401;28;20047;-86
2021/05/30 07:34:30;;;;;;;3.20;2.50;;;;;;;18.78;41.06;99850.91;4976440;28;20050;-87
2021/05/30 07:36:56;;;;;;;5.03;2.75;;;;;;;18.56;41.02;99851.22;4975907;28;20494;-86
2021/05/30 07:39:32;;;;;;;3.90;2.10;;;;;;;18.24;41.16;99850.34;4975848;28;20150;-87
2021/05/30 07:42:00;;;;;;;2.53;2.28;;;;;;;18.52;43.13;99858.25;4976413;28;20051;-87
2021/05/30 07:44:40;;;;;;;3.63;2.40;;;;;;;18.47;42.16;99847.91;4980896;28;20050;-86
2021/05/30 07:47:27;;;;;;;6.03;2.80;;;;;;;18.16;44.19;99838.50;4976405;28;20069;-86
2021/05/30 07:49:54;;;;;;;4.18;2.50;;;;;;;18.18;41.40;99849.31;4975921;28;20199;-87
2021/05/30 07:52:27;;;;;;;3.47;2.65;;;;;;;18.06;41.75;99853.81;4959584;28;20047;-84
2021/05/30 07:54:54;;;;;;;4.20;2.45;;;;;;;18.44;43.53;99844.72;4972307;28;20055;-86
2021/05/30 07:57:23;;;;;;;3.80;2.38;;;;;;;18.31;42.60;99841.00;4975587;28;20071;-86
2021/05/30 08:00:05;;;;;;;;;;;;;;;;;;;;;
2021/05/30 08:02:34;;;;;;;4.55;2.90;;;;;;;19.11;40.85;99853.44;4975315;28;20490;-85
2021/05/30 08:05:07;;;;;;;4.47;2.65;;;;;;;19.17;41.57;99843.44;4975108;28;20109;-87
2021/05/30 08:07:36;;;;;;;4.05;2.85;;;;;;;19.09;41.71;99856.41;4975039;28;20588;-87
2021/05/30 08:10:07;;;;;;;5.35;2.55;;;;;;;18.89;39.92;99856.56;4983549;28;20081;-85
2021/05/30 08:12:47;;;;;;;4.18;2.53;;;;;;;18.65;40.02;99865.59;4993973;28;20426;-87
2021/05/30 08:15:25;;;;;;;4.15;2.05;;;;;;;18.49;39.33;99858.69;4985369;28;20066;-88
2021/05/30 08:20:46;;;;;;;3.28;2.30;;;;;;;18.89;41.77;99870.34;4994846;28;20513;-88
2021/05/30 08:23:42;;;;;;;3.45;2.45;;;;;;;18.59;38.34;99856.28;4976318;28;20054;-87
2021/05/30 08:26:20;;;;;;;2.78;2.10;;;;;;;18.66;40.42;99851.59;4962253;28;20134;-88
2021/05/30 08:29:00;;;;;;;2.90;2.03;;;;;;;18.91;40.20;99873.72;4982113;28;20050;-87
2021/05/30 08:31:40;;;;;;;3.22;2.55;;;;;;;19.02;42.10;99852.03;4990105;28;20046;-89
2021/05/30 08:34:09;;;;;;;4.15;2.20;;;;;;;19.40;41.52;99837.28;4975268;28;20046;-88
2021/05/30 08:36:49;;;;;;;3.70;2.20;;;;;;;19.59;38.36;99839.00;4975926;28;20059;-87
2021/05/30 08:39:17;;;;;;;2.47;1.60;;;;;;;19.24;35.98;99846.94;4993367;28;20110;-86
2021/05/30 08:41:46;;;;;;;4.85;2.20;;;;;;;19.15;37.15;99843.66;4995200;28;20057;-89
2021/05/30 08:44:33;;;;;;;2.60;1.90;;;;;;;19.33;36.59;99820.81;4983337;28;20085;-88
2021/05/30 08:47:25;;;;;;;3.55;2.33;;;;;;;19.39;39.19;99817.16;4975923;28;20042;-88
2021/05/30 08:50:05;;;;;;;3.28;2.50;;;;;;;19.67;37.30;99818.56;4947843;28;20455;-88
2021/05/30 08:52:33;;;;;;;3.50;2.30;;;;;;;19.72;39.37;99829.75;4960481;28;20051;-89
2021/05/30 08:55:37;;;;;;;3.85;2.42;;;;;;;20.16;37.71;99827.78;4987983;28;20090;-88
2021/05/30 08:58:12;;;;;;;4.10;1.90;;;;;;;20.03;36.15;99830.69;4956413;28;20134;-88
2021/05/30 09:00:39;;;;;;;4.32;1.90;;;;;;;20.08;38.76;99814.31;4956752;28;20080;-88
2021/05/30 09:03:16;;;;;;;2.63;1.70;;;;;;;20.42;35.70;99814.69;4956979;28;20396;-89
2021/05/30 09:05:43;;;;;;;4.70;2.30;;;;;;;19.40;34.92;99816.06;4955598;28;20051;-87
2021/05/30 09:08:32;;;;;;;3.70;1.83;;;;;;;18.37;35.06;99837.34;4973230;28;20046;-87
2021/05/30 09:10:59;;;;;;;3.08;1.50;;;;;;;18.44;37.72;99834.59;4955931;28;20054;-86
2021/05/30 09:13:27;;;;;;;2.97;1.80;;;;;;;19.05;35.44;99824.03;4956304;28;20444;-86
2021/05/30 09:16:06;;;;;;;3.38;1.80;;;;;;;19.14;35.46;99838.38;4975632;28;20501;-88
2021/05/30 09:18:40;;;;;;;2.63;2.15;;;;;;;18.85;36.15;99824.16;4974950;28;20062;-87
2021/05/30 09:21:12;;;;;;;3.00;1.65;;;;;;;19.47;39.20;99831.72;4989518;28;20050;-87
2021/05/30 09:23:47;;;;;;;5.57;1.80;;;;;;;20.15;35.05;99815.03;4998380;28;20109;-86
2021/05/30 09:26:42;;;;;;;;;;;;;;;;;;;;;
2021/05/30 09:29:10;;;;;;;4.03;1.70;;;;;;;18.84;33.58;99809.53;4973767;28;20063;-86
2021/05/30 09:32:13;;;;;;;1.38;1.20;;;;;;;18.87;33.20;99808.28;4983217;28;20129;-85
2021/05/30 09:34:45;;;;;;;1.60;1.50;;;;;;;19.38;34.19;99809.94;4997988;28;20504;-85
2021/05/30 09:37:22;;;;;;;4.43;1.73;;;;;;;19.05;34.07;99818.50;4998770;28;20058;-86
2021/05/30 09:39:49;;;;;;;5.30;2.00;;;;;;;18.87;34.35;99814.63;4998017;28;20058;-86
2021/05/30 09:42:22;;;;;;;3.83;2.08;;;;;;;18.72;34.45;99808.56;4976928;28;20059;-86
2021/05/30 09:44:55;;;;;;;3.42;1.70;;;;;;;18.57;33.63;99806.94;4958735;28;20059;-84
2021/05/30 09:47:34;;;;;;;2.33;1.50;;;;;;;18.67;34.66;99806.47;4959015;28;20138;-86
2021/05/30 09:50:03;;;;;;;7.32;1.70;;;;;;;18.58;34.83;99816.06;4966718;28;20050;-86
2021/05/30 09:52:39;;;;;;;3.05;1.70;;;;;;;18.50;34.97;99808.94;4988554;28;20051;-84
2021/05/30 09:55:14;;;;;;;5.93;2.13;;;;;;;19.23;34.15;99814.97;4982489;28;20137;-86
2021/05/30 09:58:03;;;;;;;2.13;1.65;;;;;;;19.45;32.82;99812.63;4980170;28;20557;-85
2021/05/30 10:00:32;;;;;;;1.45;1.27;;;;;;;19.28;31.77;99793.06;4978054;28;20089;-86
2021/05/30 10:03:02;;;;;;;2.38;1.73;;;;;;;19.01;31.47;99804.31;4978237;28;20058;-85
2021/05/30 10:05:36;;;;;;;2.15;1.35;;;;;;;19.13;32.18;99792.59;4977719;28;20719;-87
2021/05/30 10:08:04;;;;;;;3.22;1.65;;;;;;;19.61;29.46;99800.16;4977576;28;20051;-86
2021/05/30 10:10:35;;;;;;;1.73;1.45;;;;;;;19.85;29.09;99794.84;4992520;28;20058;-88
2021/05/30 10:13:05;;;;;;;4.75;2.10;;;;;;;20.05;29.75;99805.63;4991303;28;20053;-86
2021/05/30 10:31:31;;;;;;;2.23;1.70;;;;;;;19.41;35.25;99792.94;4953811;29;20408;-85
2021/05/30 10:34:23;;;;;;;3.17;1.77;;;;;;;19.66;34.31;99807.75;4945223;28;20299;-85
2021/05/30 10:37:24;;;;;;;2.85;1.92;;;;;;;19.43;35.61;99812.84;4938854;29;20062;-85
2021/05/30 10:40:00;;;;;;;6.03;2.08;;;;;;;19.61;35.52;99794.66;4951814;29;20435;-84
2021/05/30 10:42:26;;;;;;;3.63;1.95;;;;;;;19.80;33.29;99801.88;4945224;29;20484;-86
2021/05/30 10:45:00;;;;;;;3.13;1.70;;;;;;;19.53;32.14;99806.00;4938118;29;20052;-84
2021/05/30 10:48:04;;;;;;;2.58;2.00;;;;;;;20.11;33.51;99804.69;4955252;28;20059;-84
2021/05/30 10:50:37;;;;;;;4.95;1.67;;;;;;;19.91;31.70;99788.41;4952060;29;20066;-83
2021/05/30 10:53:04;;;;;;;3.67;1.83;;;;;;;19.91;32.48;99810.47;4949464;29;20179;-83
2021/05/30 10:55:33;;;;;;;3.10;1.75;;;;;;;19.62;31.11;99785.31;4969353;28;20122;-83
2021/05/30 10:58:16;;;;;;;3.13;1.52;;;;;;;20.37;30.67;99777.81;4975287;28;20057;-83
2021/05/30 11:00:47;;;;;;;3.72;1.73;;;;;;;20.06;31.97;99801.81;4964953;28;20372;-85
2021/05/30 11:03:14;;;;;;;3.45;2.33;;;;;;;19.40;32.81;99805.03;4975812;28;20054;-83
2021/05/30 11:05:44;;;;;;;3.88;1.92;;;;;;;19.32;33.82;99790.72;4975583;28;20051;-84
2021/05/30 11:08:57;;;;;;;3.92;1.70;;;;;;;19.93;32.60;99781.59;4975292;28;20047;-84
2021/05/30 11:11:25;;;;;;;1.85;1.50;;;;;;;19.80;31.88;99790.84;4916412;29;20043;-83
2021/05/30 11:13:55;;;;;;;7.30;1.80;;;;;;;19.38;33.37;99776.03;4958272;28;20170;-83
2021/05/30 11:16:21;;;;;;;;;;;;;;;19.20;33.49;99790.63;4975892;28;20053;-85
2021/05/30 11:19:18;;;;;;;6.10;2.85;;;;;;;18.57;33.91;99786.84;4975703;28;20385;-85
2021/05/30 11:21:52;;;;;;;3.42;1.83;;;;;;;18.93;33.93;99764.13;4975823;28;20046;-85
2021/05/30 11:24:30;;;;;;;3.67;1.65;;;;;;;19.78;34.29;99767.31;4975634;28;20566;-85
2021/05/30 11:27:42;;;;;;;5.30;1.60;;;;;;;20.28;32.68;99782.84;4973902;28;20051;-85
2021/05/30 11:33:45;;;;;;;3.28;1.90;;;;;;;19.85;30.23;99761.75;4974422;28;20231;-85
2021/05/30 11:36:18;;;;;;;2.63;1.80;;;;;;;20.22;30.74;99767.19;4973736;28;20078;-84
2021/05/30 11:38:55;;;;;;;2.70;1.30;;;;;;;20.34;31.84;99749.59;4973748;28;20538;-84
2021/05/30 11:41:38;;;;;;;4.28;1.92;;;;;;;19.66;30.30;99741.56;4975643;28;20077;-84
2021/05/30 11:44:17;;;;;;;2.63;1.70;;;;;;;19.14;29.69;99755.69;4974337;28;20501;-88
2021/05/30 11:46:50;;;;;;;4.78;2.90;;;;;;;18.74;31.00;99768.72;4974938;28;20074;-84
2021/05/30 11:49:20;;;;;;;5.13;1.90;;;;;;;18.78;32.17;99768.28;4975026;28;20141;-85
2021/05/30 11:51:58;;;;;;;5.18;1.92;;;;;;;19.12;32.02;99769.72;4976761;28;20070;-88
2021/05/30 11:54:32;;;;;;;3.17;1.80;;;;;;;19.10;30.90;99749.78;4978078;28;20471;-91
2021/05/30 11:57:03;;;;;;;3.65;1.77;;;;;;;18.75;30.37;99759.38;4976758;28;20416;-89
2021/05/30 11:59:43;;;;;;;3.10;1.92;;;;;;;18.43;31.68;99735.69;4967371;28;20050;-89
2021/05/30 12:02:43;;;;;;;3.00;1.63;;;;;;;19.39;32.98;99750.97;4979834;28;20055;-92
2021/05/30 12:05:14;;;;;;;4.65;1.95;;;;;;;19.61;31.40;99745.84;4978357;28;20106;-89
2021/05/30 12:07:51;;;;;;;7.78;3.58;;;;;;;19.98;29.69;99745.00;4977813;28;20447;-90
2021/05/30 12:10:23;;;;;;;3.22;1.88;;;;;;;20.83;28.00;99730.16;4978067;28;20101;-89
2021/05/30 12:12:53;;;;;;;3.10;1.58;;;;;;;21.15;29.97;99749.16;4965721;28;20061;-89
2021/05/30 12:15:34;;;;;;;3.65;1.92;;;;;;;20.55;30.43;99733.56;4979258;28;20051;-88
2021/05/30 12:18:07;;;;;;;5.85;1.90;;;;;;;20.15;31.57;99729.47;4975893;28;20047;-88
2021/05/30 12:20:38;;;;;;;3.22;1.75;;;;;;;20.48;30.39;99732.81;4976003;28;20057;-89
2021/05/30 12:23:19;;;;;;;3.40;1.83;;;;;;;20.82;29.24;99733.16;4979299;28;20074;-87
2021/05/30 12:25:55;;;;;;;3.35;2.17;;;;;;;20.66;31.02;99741.06;4972209;28;20051;-89
2021/05/30 12:28:30;;;;;;;4.35;2.10;;;;;;;19.85;31.47;99734.16;4971846;28;20102;-88
2021/05/30 12:31:10;;;;;;;5.15;1.80;;;;;;;19.50;32.43;99732.00;4977594;28;20098;-88
2021/05/30 12:33:54;;;;;;;4.25;2.00;;;;;;;19.59;32.74;99728.69;4975568;28;20185;-87